createdAt,value
2022-08-03T00:00:05.885Z,18.3
2022-08-03T00:10:06.012Z,18.2
2022-08-03T00:20:06.870Z,18.3
2022-08-03T00:30:07.586Z,18.1
2022-08-03T00:40:07.816Z,18.1
2022-08-03T00:50:08.206Z,17.8
2022-08-03T01:10:09.496Z,17.5
2022-08-03T01:20:09.987Z,17.3
2022-08-03T01:30:10.583Z,17.2
2022-08-03T01:40:11.444Z,17.1
2022-08-03T01:50:11.838Z,17.1
2022-08-03T02:00:12.052Z,17
2022-08-03T02:10:12.568Z,16.9
2022-08-03T02:20:13.331Z,16.8
2022-08-03T02:40:14.382Z,16.6
2022-08-03T02:50:15.053Z,16.7
2022-08-03T03:00:19.624Z,16.6
2022-08-03T03:10:16.099Z,16.6
2022-08-03T03:20:28.890Z,16.6
2022-08-03T03:40:18.088Z,16.5
2022-08-03T03:50:19.178Z,16.3
2022-08-03T04:00:19.609Z,16.3
2022-08-03T04:10:20.281Z,16.2
2022-08-03T04:20:20.545Z,16.2
2022-08-03T04:30:21.526Z,16.3
2022-08-03T04:40:22.744Z,16.4
2022-08-03T04:50:22.142Z,16.6
2022-08-03T05:00:22.432Z,16.7
2022-08-03T05:10:23.112Z,17.1
2022-08-03T05:20:23.777Z,17.5
2022-08-03T05:40:25.208Z,19.2
2022-08-03T05:50:25.388Z,19.9
2022-08-03T06:30:27.803Z,22.1
2022-08-03T07:00:30.147Z,24.1
2022-08-03T07:10:30.505Z,24.5
2022-08-03T07:20:32.578Z,25.1
2022-08-03T07:30:31.698Z,25.5
2022-08-03T07:40:32.779Z,26
2022-08-03T07:50:33.386Z,26.2
2022-08-03T08:10:34.172Z,26
2022-08-03T08:20:34.952Z,25.9
2022-08-03T08:30:35.694Z,26.5
2022-08-03T08:50:36.481Z,27.4
2022-08-03T09:20:37.659Z,27.8
2022-08-03T09:30:38.366Z,28.3
2022-08-03T09:50:39.023Z,28.7
2022-08-03T10:00:39.983Z,28.7
2022-08-03T10:20:40.991Z,29
2022-08-03T10:30:41.445Z,29.3
2022-08-03T10:40:50.365Z,29.5
2022-08-03T11:00:43.892Z,29.2
2022-08-03T12:30:49.134Z,31
2022-08-03T13:50:54.368Z,31.2
2022-08-03T15:10:58.881Z,31.4
2022-08-03T15:20:59.495Z,31.4
2022-08-03T15:31:00.246Z,31.7
2022-08-03T15:51:01.559Z,31.8
2022-08-03T16:01:01.882Z,31.6
2022-08-03T16:21:03.526Z,31.8
2022-08-03T16:31:04.036Z,31.8
2022-08-03T16:41:04.873Z,31.7
2022-08-03T16:51:04.992Z,31.6
2022-08-03T17:01:06.436Z,31.6
2022-08-03T17:11:05.656Z,31.3
2022-08-03T17:41:10.708Z,30.6
2022-08-03T17:51:07.844Z,30.4
2022-08-03T18:01:57.192Z,30.3
2022-08-03T18:31:09.404Z,29.3
2022-08-03T18:41:12.751Z,29
2022-08-03T18:51:10.890Z,28.7
2022-08-03T19:01:15.351Z,28.3
2022-08-03T19:11:11.246Z,28
2022-08-03T19:31:13.324Z,27.3
2022-08-03T19:41:14.348Z,27
2022-08-03T19:51:14.290Z,26.6
2022-08-03T20:01:19.724Z,26.1
2022-08-03T20:21:15.707Z,25.5
2022-08-03T20:31:16.142Z,25.1
2022-08-03T20:41:16.969Z,24.8
2022-08-03T20:51:19.809Z,24.2
2022-08-03T21:01:17.939Z,24.1
2022-08-03T21:11:18.695Z,23.8
2022-08-03T21:13:00.102Z,29.8
2022-08-03T21:21:18.904Z,23.4
2022-08-03T21:31:21.375Z,23.3
2022-08-03T21:41:19.566Z,23
2022-08-03T21:51:20.651Z,22.9
2022-08-03T22:01:21.617Z,23
2022-08-03T22:21:27.593Z,22.7
2022-08-03T22:31:30.389Z,22.4
2022-08-03T22:51:24.488Z,22
2022-08-03T23:01:25.049Z,22.1
2022-08-03T23:11:25.499Z,22.1
2022-08-03T23:21:51.364Z,22
2022-08-03T23:41:27.851Z,21.9
2022-08-03T23:51:27.962Z,21.9
